sensor_id;sensor_type;location;lat;lon;timestamp;pressure;altitude;pressure_sealevel;temperature;humidity
64158;BME280;50449;51.528;5.076;2022-09-03T00:02:06;100934.13;;;24.82;30.86
64158;BME280;50449;51.528;5.076;2022-09-03T00:04:31;100935.59;;;24.80;30.75
64158;BME280;50449;51.528;5.076;2022-09-03T00:07:02;100929.94;;;24.76;30.75
64158;BME280;50449;51.528;5.076;2022-09-03T00:09:35;100930.28;;;24.75;30.96
64158;BME280;50449;51.528;5.076;2022-09-03T00:12:10;100929.00;;;24.72;30.90
64158;BME280;50449;51.528;5.076;2022-09-03T00:14:59;100922.19;;;24.70;31.15
64158;BME280;50449;51.528;5.076;2022-09-03T00:17:37;100929.19;;;24.67;30.89
64158;BME280;50449;51.528;5.076;2022-09-03T00:20:07;100924.31;;;24.64;30.82
64158;BME280;50449;51.528;5.076;2022-09-03T00:22:36;100930.50;;;24.61;30.93
64158;BME280;50449;51.528;5.076;2022-09-03T00:25:04;100931.97;;;24.58;30.92
64158;BME280;50449;51.528;5.076;2022-09-03T00:27:32;100920.13;;;24.58;31.23
64158;BME280;50449;51.528;5.076;2022-09-03T00:30:02;100917.22;;;24.54;31.22
64158;BME280;50449;51.528;5.076;2022-09-03T00:32:31;100919.50;;;24.52;31.34
64158;BME280;50449;51.528;5.076;2022-09-03T00:35:02;100922.91;;;24.49;30.92
64158;BME280;50449;51.528;5.076;2022-09-03T00:37:28;100922.47;;;24.47;30.97
64158;BME280;50449;51.528;5.076;2022-09-03T00:39:54;100925.53;;;24.46;30.92
64158;BME280;50449;51.528;5.076;2022-09-03T00:42:33;100917.91;;;24.43;31.02
64158;BME280;50449;51.528;5.076;2022-09-03T00:45:47;100917.44;;;24.40;31.02
64158;BME280;50449;51.528;5.076;2022-09-03T00:48:04;100923.63;;;24.37;31.33
64158;BME280;50449;51.528;5.076;2022-09-03T01:00:58;100917.19;;;24.25;30.96
64158;BME280;50449;51.528;5.076;2022-09-03T01:06:40;100916.22;;;24.21;31.49
64158;BME280;50449;51.528;5.076;2022-09-03T01:11:50;100903.41;;;24.16;31.05
64158;BME280;50449;51.528;5.076;2022-09-03T01:17:00;100903.56;;;24.11;31.27
64158;BME280;50449;51.528;5.076;2022-09-03T01:19:47;100907.81;;;24.08;31.10
64158;BME280;50449;51.528;5.076;2022-09-03T01:22:36;100913.19;;;24.05;31.20
64158;BME280;50449;51.528;5.076;2022-09-03T01:27:40;100911.41;;;24.00;31.16
64158;BME280;50449;51.528;5.076;2022-09-03T01:30:11;100910.94;;;23.98;31.53
64158;BME280;50449;51.528;5.076;2022-09-03T01:35:46;100924.91;;;23.93;31.56
64158;BME280;50449;51.528;5.076;2022-09-03T01:44:09;100914.34;;;23.86;31.63
64158;BME280;50449;51.528;5.076;2022-09-03T01:46:33;100913.06;;;23.84;31.25
64158;BME280;50449;51.528;5.076;2022-09-03T01:51:29;100908.88;;;23.78;31.28
64158;BME280;50449;51.528;5.076;2022-09-03T01:53:59;100912.78;;;23.77;31.58
64158;BME280;50449;51.528;5.076;2022-09-03T01:59:18;100915.69;;;23.71;31.21
64158;BME280;50449;51.528;5.076;2022-09-03T02:01:52;100922.66;;;23.69;31.54
64158;BME280;50449;51.528;5.076;2022-09-03T02:04:21;100915.84;;;23.66;31.35
64158;BME280;50449;51.528;5.076;2022-09-03T02:06:48;100909.50;;;23.66;31.41
64158;BME280;50449;51.528;5.076;2022-09-03T02:09:14;100916.47;;;23.63;31.78
64158;BME280;50449;51.528;5.076;2022-09-03T02:11:40;100905.00;;;23.61;31.37
64158;BME280;50449;51.528;5.076;2022-09-03T02:14:06;100908.38;;;23.58;31.35
64158;BME280;50449;51.528;5.076;2022-09-03T02:16:32;100904.03;;;23.57;31.53
64158;BME280;50449;51.528;5.076;2022-09-03T02:19:03;100905.47;;;23.54;31.56
64158;BME280;50449;51.528;5.076;2022-09-03T02:21:34;100902.22;;;23.52;31.69
64158;BME280;50449;51.528;5.076;2022-09-03T02:23:59;100907.25;;;23.50;31.49
64158;BME280;50449;51.528;5.076;2022-09-03T02:26:25;100911.47;;;23.48;31.82
64158;BME280;50449;51.528;5.076;2022-09-03T02:28:50;100905.47;;;23.46;31.71
64158;BME280;50449;51.528;5.076;2022-09-03T02:31:17;100907.78;;;23.44;31.85
64158;BME280;50449;51.528;5.076;2022-09-03T02:33:43;100908.09;;;23.42;31.50
64158;BME280;50449;51.528;5.076;2022-09-03T02:36:10;100907.59;;;23.40;31.68
64158;BME280;50449;51.528;5.076;2022-09-03T02:38:36;100911.00;;;23.37;31.54
64158;BME280;50449;51.528;5.076;2022-09-03T02:41:02;100908.56;;;23.36;31.52
64158;BME280;50449;51.528;5.076;2022-09-03T02:46:13;100905.66;;;23.32;31.88
64158;BME280;50449;51.528;5.076;2022-09-03T02:48:41;100900.31;;;23.27;31.62
64158;BME280;50449;51.528;5.076;2022-09-03T02:51:06;100905.03;;;23.26;31.89
64158;BME280;50449;51.528;5.076;2022-09-03T02:53:31;100905.66;;;23.23;31.73
64158;BME280;50449;51.528;5.076;2022-09-03T02:55:58;100913.44;;;23.21;31.68
64158;BME280;50449;51.528;5.076;2022-09-03T02:58:24;100903.88;;;23.19;31.65
64158;BME280;50449;51.528;5.076;2022-09-03T03:00:49;100903.41;;;23.17;31.96
64158;BME280;50449;51.528;5.076;2022-09-03T03:03:15;100905.66;;;23.15;31.99
64158;BME280;50449;51.528;5.076;2022-09-03T03:08:08;100899.16;;;23.10;31.99
64158;BME280;50449;51.528;5.076;2022-09-03T03:10:34;100904.22;;;23.08;31.90
64158;BME280;50449;51.528;5.076;2022-09-03T03:12:59;100909.22;;;23.06;32.01
64158;BME280;50449;51.528;5.076;2022-09-03T03:15:25;100908.72;;;23.04;31.99
64158;BME280;50449;51.528;5.076;2022-09-03T03:17:50;100906.28;;;23.03;31.98
64158;BME280;50449;51.528;5.076;2022-09-03T03:20:15;100906.94;;;23.00;31.78
64158;BME280;50449;51.528;5.076;2022-09-03T03:22:40;100910.84;;;22.99;32.07
64158;BME280;50449;51.528;5.076;2022-09-03T03:25:06;100913.06;;;22.97;31.67
64158;BME280;50449;51.528;5.076;2022-09-03T03:27:31;100905.13;;;22.95;31.69
64158;BME280;50449;51.528;5.076;2022-09-03T03:29:56;100913.72;;;22.94;32.03
64158;BME280;50449;51.528;5.076;2022-09-03T03:32:22;100913.53;;;22.90;31.78
64158;BME280;50449;51.528;5.076;2022-09-03T03:34:47;100913.03;;;22.88;31.67
64158;BME280;50449;51.528;5.076;2022-09-03T03:37:12;100905.13;;;22.86;32.14
64158;BME280;50449;51.528;5.076;2022-09-03T03:39:38;100914.84;;;22.84;31.76
64158;BME280;50449;51.528;5.076;2022-09-03T03:42:03;100911.59;;;22.82;32.10
64158;BME280;50449;51.528;5.076;2022-09-03T03:46:54;100919.69;;;22.78;31.91
64158;BME280;50449;51.528;5.076;2022-09-03T03:49:19;100910.94;;;22.76;32.08
64158;BME280;50449;51.528;5.076;2022-09-03T03:51:44;100906.88;;;22.74;32.15
64158;BME280;50449;51.528;5.076;2022-09-03T03:54:09;100900.88;;;22.72;31.78
64158;BME280;50449;51.528;5.076;2022-09-03T03:56:35;100903.13;;;22.69;31.81
64158;BME280;50449;51.528;5.076;2022-09-03T03:59:00;100906.22;;;22.68;31.84
64158;BME280;50449;51.528;5.076;2022-09-03T04:01:26;100910.09;;;22.67;31.74
64158;BME280;50449;51.528;5.076;2022-09-03T04:03:55;100908.78;;;22.64;32.28
64158;BME280;50449;51.528;5.076;2022-09-03T04:06:21;100900.03;;;22.62;31.92
64158;BME280;50449;51.528;5.076;2022-09-03T04:08:47;100908.63;;;22.61;31.99
64158;BME280;50449;51.528;5.076;2022-09-03T04:11:14;100902.63;;;22.59;32.03
64158;BME280;50449;51.528;5.076;2022-09-03T04:13:40;100908.78;;;22.56;32.29
64158;BME280;50449;51.528;5.076;2022-09-03T04:16:16;100903.59;;;22.54;32.01
64158;BME280;50449;51.528;5.076;2022-09-03T04:18:42;100903.88;;;22.53;31.86
64158;BME280;50449;51.528;5.076;2022-09-03T04:21:09;100897.91;;;22.51;32.17
64158;BME280;50449;51.528;5.076;2022-09-03T04:23:39;100902.94;;;22.49;31.97
64158;BME280;50449;51.528;5.076;2022-09-03T04:26:04;100896.13;;;22.46;32.29
64158;BME280;50449;51.528;5.076;2022-09-03T04:28:30;100897.56;;;22.43;32.40
64158;BME280;50449;51.528;5.076;2022-09-03T04:31:00;100905.31;;;22.41;32.31
64158;BME280;50449;51.528;5.076;2022-09-03T04:33:26;100893.50;;;22.41;32.40
64158;BME280;50449;51.528;5.076;2022-09-03T04:35:51;100904.03;;;22.39;32.31
64158;BME280;50449;51.528;5.076;2022-09-03T04:38:16;100908.22;;;22.36;32.37
64158;BME280;50449;51.528;5.076;2022-09-03T04:40:41;100902.22;;;22.34;32.36
64158;BME280;50449;51.528;5.076;2022-09-03T04:43:08;100912.44;;;22.34;32.31
64158;BME280;50449;51.528;5.076;2022-09-03T04:45:33;100911.94;;;22.32;32.13
64158;BME280;50449;51.528;5.076;2022-09-03T04:48:01;100905.91;;;22.30;32.47
64158;BME280;50449;51.528;5.076;2022-09-03T04:50:27;100905.75;;;22.26;32.49
64158;BME280;50449;51.528;5.076;2022-09-03T04:52:54;100910.47;;;22.25;32.17
64158;BME280;50449;51.528;5.076;2022-09-03T04:55:21;100907.22;;;22.23;32.24
64158;BME280;50449;51.528;5.076;2022-09-03T04:57:46;100914.16;;;22.21;32.46
64158;BME280;50449;51.528;5.076;2022-09-03T05:00:12;100906.19;;;22.19;32.14
64158;BME280;50449;51.528;5.076;2022-09-03T05:02:37;100910.06;;;22.18;32.55
64158;BME280;50449;51.528;5.076;2022-09-03T05:05:03;100911.50;;;22.16;32.14
64158;BME280;50449;51.528;5.076;2022-09-03T05:07:28;100905.50;;;22.14;32.13
64158;BME280;50449;51.528;5.076;2022-09-03T05:10:02;100906.94;;;22.11;32.26
64158;BME280;50449;51.528;5.076;2022-09-03T05:12:28;100904.50;;;22.10;32.35
64158;BME280;50449;51.528;5.076;2022-09-03T05:14:55;100910.34;;;22.08;32.68
64158;BME280;50449;51.528;5.076;2022-09-03T05:17:20;100909.03;;;22.06;32.51
64158;BME280;50449;51.528;5.076;2022-09-03T05:19:46;100898.34;;;22.04;32.45
64158;BME280;50449;51.528;5.076;2022-09-03T05:22:11;100900.59;;;22.02;32.38
64158;BME280;50449;51.528;5.076;2022-09-03T05:24:36;100906.72;;;21.99;32.41
64158;BME280;50449;51.528;5.076;2022-09-03T05:27:02;100900.72;;;21.97;32.41
64158;BME280;50449;51.528;5.076;2022-09-03T05:29:27;100905.41;;;21.96;32.44
64158;BME280;50449;51.528;5.076;2022-09-03T05:31:52;100904.91;;;21.94;32.68
64158;BME280;50449;51.528;5.076;2022-09-03T05:34:17;100908.00;;;21.93;32.67
64158;BME280;50449;51.528;5.076;2022-09-03T05:36:43;100898.44;;;21.90;32.42
64158;BME280;50449;51.528;5.076;2022-09-03T05:39:10;100912.50;;;21.89;32.63
64158;BME280;50449;51.528;5.076;2022-09-03T05:41:35;100911.69;;;21.88;32.41
64158;BME280;50449;51.528;5.076;2022-09-03T05:44:00;100906.81;;;21.85;32.52
64158;BME280;50449;51.528;5.076;2022-09-03T05:46:27;100911.50;;;21.85;32.52
64158;BME280;50449;51.528;5.076;2022-09-03T05:49:02;100903.06;;;21.81;32.76
64158;BME280;50449;51.528;5.076;2022-09-03T05:51:28;100901.47;;;21.80;32.86
64158;BME280;50449;51.528;5.076;2022-09-03T05:53:54;100899.81;;;21.79;32.58
64158;BME280;50449;51.528;5.076;2022-09-03T05:56:20;100907.56;;;21.77;32.58
64158;BME280;50449;51.528;5.076;2022-09-03T05:58:46;100905.16;;;21.75;32.75
64158;BME280;50449;51.528;5.076;2022-09-03T06:01:13;100906.59;;;21.73;32.56
64158;BME280;50449;51.528;5.076;2022-09-03T06:03:39;100910.78;;;21.70;32.70
64158;BME280;50449;51.528;5.076;2022-09-03T06:06:05;100906.38;;;21.69;32.67
64158;BME280;50449;51.528;5.076;2022-09-03T06:08:31;100910.28;;;21.68;33.01
64158;BME280;50449;51.528;5.076;2022-09-03T06:10:57;100911.41;;;21.67;32.62
64158;BME280;50449;51.528;5.076;2022-09-03T06:13:23;100915.28;;;21.66;33.01
64158;BME280;50449;51.528;5.076;2022-09-03T06:15:48;100913.66;;;21.65;32.78
64158;BME280;50449;51.528;5.076;2022-09-03T06:18:13;100918.66;;;21.63;33.14
64158;BME280;50449;51.528;5.076;2022-09-03T06:20:38;100917.84;;;21.63;32.78
64158;BME280;50449;51.528;5.076;2022-09-03T06:23:04;100914.59;;;21.60;32.71
64158;BME280;50449;51.528;5.076;2022-09-03T06:25:29;100916.53;;;21.60;32.82
64158;BME280;50449;51.528;5.076;2022-09-03T06:27:55;100916.03;;;21.58;33.17
64158;BME280;50449;51.528;5.076;2022-09-03T06:30:21;100912.47;;;21.57;33.17
64158;BME280;50449;51.528;5.076;2022-09-03T06:32:48;100913.06;;;21.54;32.87
64158;BME280;50449;51.528;5.076;2022-09-03T06:35:16;100913.06;;;21.54;32.90
64158;BME280;50449;51.528;5.076;2022-09-03T06:37:42;100919.72;;;21.53;32.83
64158;BME280;50449;51.528;5.076;2022-09-03T06:40:08;100913.72;;;21.51;32.92
64158;BME280;50449;51.528;5.076;2022-09-03T06:42:36;100919.19;;;21.51;32.95
64158;BME280;50449;51.528;5.076;2022-09-03T06:45:01;100921.44;;;21.49;32.97
64158;BME280;50449;51.528;5.076;2022-09-03T06:47:27;100921.78;;;21.48;32.96
64158;BME280;50449;51.528;5.076;2022-09-03T06:49:52;100920.13;;;21.47;32.99
64158;BME280;50449;51.528;5.076;2022-09-03T06:52:17;100924.81;;;21.46;33.11
64158;BME280;50449;51.528;5.076;2022-09-03T06:54:43;100926.75;;;21.46;33.17
64158;BME280;50449;51.528;5.076;2022-09-03T06:57:08;100922.41;;;21.45;33.15
64158;BME280;50449;51.528;5.076;2022-09-03T06:59:33;100927.06;;;21.44;33.04
64158;BME280;50449;51.528;5.076;2022-09-03T07:01:58;100926.25;;;21.44;33.23
64158;BME280;50449;51.528;5.076;2022-09-03T07:04:24;100928.50;;;21.42;33.12
64158;BME280;50449;51.528;5.076;2022-09-03T07:06:51;100931.25;;;21.42;33.07
64158;BME280;50449;51.528;5.076;2022-09-03T07:09:16;100932.38;;;21.41;33.14
64158;BME280;50449;51.528;5.076;2022-09-03T07:11:43;100934.31;;;21.40;33.07
64158;BME280;50449;51.528;5.076;2022-09-03T07:14:11;100924.44;;;21.39;33.30
64158;BME280;50449;51.528;5.076;2022-09-03T07:16:36;100933.53;;;21.39;33.66
64158;BME280;50449;51.528;5.076;2022-09-03T07:19:02;100922.53;;;21.39;33.18
64158;BME280;50449;51.528;5.076;2022-09-03T07:21:29;100926.09;;;21.40;33.57
64158;BME280;50449;51.528;5.076;2022-09-03T07:23:55;100929.63;;;21.41;33.39
64158;BME280;50449;51.528;5.076;2022-09-03T07:26:21;100924.94;;;21.41;33.47
64158;BME280;50449;51.528;5.076;2022-09-03T07:28:47;100923.00;;;21.42;33.51
64158;BME280;50449;51.528;5.076;2022-09-03T07:31:23;100925.75;;;21.42;33.61
64158;BME280;50449;51.528;5.076;2022-09-03T07:34:11;100926.59;;;21.42;33.96
64158;BME280;50449;51.528;5.076;2022-09-03T07:36:39;100928.19;;;21.43;33.73
64158;BME280;50449;51.528;5.076;2022-09-03T07:39:10;100920.75;;;21.44;34.09
64158;BME280;50449;51.528;5.076;2022-09-03T07:41:35;100924.31;;;21.44;33.98
64158;BME280;50449;51.528;5.076;2022-09-03T07:44:01;100929.50;;;21.46;33.99
64158;BME280;50449;51.528;5.076;2022-09-03T07:46:30;100934.72;;;21.47;33.85
64158;BME280;50449;51.528;5.076;2022-09-03T07:48:56;100931.34;;;21.50;34.29
64158;BME280;50449;51.528;5.076;2022-09-03T07:51:23;100938.13;;;21.53;34.01
64158;BME280;50449;51.528;5.076;2022-09-03T07:53:55;100924.91;;;21.55;34.32
64158;BME280;50449;51.528;5.076;2022-09-03T07:56:22;100934.13;;;21.59;33.87
64158;BME280;50449;51.528;5.076;2022-09-03T07:58:47;100935.44;;;21.61;34.04
64158;BME280;50449;51.528;5.076;2022-09-03T08:01:14;100936.75;;;21.64;34.68
64158;BME280;50449;51.528;5.076;2022-09-03T08:03:44;100931.47;;;21.68;34.14
64158;BME280;50449;51.528;5.076;2022-09-03T08:06:10;100936.03;;;21.72;34.53
64158;BME280;50449;51.528;5.076;2022-09-03T08:08:35;100939.44;;;21.78;34.55
64158;BME280;50449;51.528;5.076;2022-09-03T08:11:08;100940.94;;;21.84;34.80
64158;BME280;50449;51.528;5.076;2022-09-03T08:13:38;100938.56;;;21.91;34.71
64158;BME280;50449;51.528;5.076;2022-09-03T08:16:04;100943.94;;;21.96;34.56
64158;BME280;50449;51.528;5.076;2022-09-03T08:18:30;100945.44;;;22.02;34.90
64158;BME280;50449;51.528;5.076;2022-09-03T08:21:01;100935.09;;;22.08;34.89
64158;BME280;50449;51.528;5.076;2022-09-03T08:23:27;100947.59;;;22.14;35.16
64158;BME280;50449;51.528;5.076;2022-09-03T08:25:59;100947.16;;;22.21;35.44
64158;BME280;50449;51.528;5.076;2022-09-03T08:28:25;100941.22;;;22.28;34.92
64158;BME280;50449;51.528;5.076;2022-09-03T08:30:50;100947.41;;;22.33;35.25
64158;BME280;50449;51.528;5.076;2022-09-03T08:33:16;100945.81;;;22.41;35.14
64158;BME280;50449;51.528;5.076;2022-09-03T08:35:41;100952.78;;;22.47;35.14
64158;BME280;50449;51.528;5.076;2022-09-03T08:38:06;100950.69;;;22.53;35.36
64158;BME280;50449;51.528;5.076;2022-09-03T08:40:33;100953.00;;;22.59;35.21
64158;BME280;50449;51.528;5.076;2022-09-03T08:45:30;100956.25;;;22.70;35.19
64158;BME280;50449;51.528;5.076;2022-09-03T08:52:48;100965.38;;;22.88;34.75
64158;BME280;50449;51.528;5.076;2022-09-03T08:57:47;100960.94;;;23.01;34.56
64158;BME280;50449;51.528;5.076;2022-09-03T09:00:12;100967.88;;;23.07;34.95
64158;BME280;50449;51.528;5.076;2022-09-03T09:03:22;100961.41;;;23.11;34.44
64158;BME280;50449;51.528;5.076;2022-09-03T09:08:15;100967.09;;;23.24;34.46
64158;BME280;50449;51.528;5.076;2022-09-03T09:10:44;100971.81;;;23.32;34.85
64158;BME280;50449;51.528;5.076;2022-09-03T09:23:39;100969.53;;;23.60;34.59
64158;BME280;50449;51.528;5.076;2022-09-03T09:26:09;100959.50;;;23.64;34.59
64158;BME280;50449;51.528;5.076;2022-09-03T09:28:35;100958.84;;;23.67;34.43
64158;BME280;50449;51.528;5.076;2022-09-03T09:31:02;100955.09;;;23.72;34.52
64158;BME280;50449;51.528;5.076;2022-09-03T09:33:29;100948.63;;;23.77;34.58
64158;BME280;50449;51.528;5.076;2022-09-03T09:35:55;100954.78;;;23.82;34.27
64158;BME280;50449;51.528;5.076;2022-09-03T09:38:28;100949.91;;;23.88;34.33
64158;BME280;50449;51.528;5.076;2022-09-03T09:40:53;100954.44;;;23.92;34.31
64158;BME280;50449;51.528;5.076;2022-09-03T09:43:21;100944.69;;;23.95;34.21
64158;BME280;50449;51.528;5.076;2022-09-03T09:45:47;100951.19;;;23.99;34.16
64158;BME280;50449;51.528;5.076;2022-09-03T09:48:24;100945.50;;;24.04;34.32
64158;BME280;50449;51.528;5.076;2022-09-03T09:51:02;100950.84;;;24.09;34.49
64158;BME280;50449;51.528;5.076;2022-09-03T09:53:28;100956.19;;;24.14;34.30
64158;BME280;50449;51.528;5.076;2022-09-03T09:55:55;100960.69;;;24.19;33.83
64158;BME280;50449;51.528;5.076;2022-09-03T09:58:21;100951.78;;;24.22;33.90
64158;BME280;50449;51.528;5.076;2022-09-03T10:06:29;100952.69;;;24.35;33.72
64158;BME280;50449;51.528;5.076;2022-09-03T10:09:15;100948.59;;;24.41;34.00
64158;BME280;50449;51.528;5.076;2022-09-03T10:12:27;100946.00;;;24.45;33.87
64158;BME280;50449;51.528;5.076;2022-09-03T10:14:29;100953.28;;;24.49;34.08
64158;BME280;50449;51.528;5.076;2022-09-03T10:17:13;100945.16;;;24.53;34.08
64158;BME280;50449;51.528;5.076;2022-09-03T10:22:46;100941.56;;;24.61;33.78
64158;BME280;50449;51.528;5.076;2022-09-03T10:25:14;100936.19;;;24.65;33.91
64158;BME280;50449;51.528;5.076;2022-09-03T10:27:40;100931.59;;;24.69;33.71
64158;BME280;50449;51.528;5.076;2022-09-03T10:30:10;100931.75;;;24.72;33.98
64158;BME280;50449;51.528;5.076;2022-09-03T10:35:05;100935.59;;;24.80;34.05
64158;BME280;50449;51.528;5.076;2022-09-03T10:45:18;100930.41;;;24.99;34.76
64158;BME280;50449;51.528;5.076;2022-09-03T10:47:52;100927.47;;;25.04;34.25
64158;BME280;50449;51.528;5.076;2022-09-03T10:50:33;100925.78;;;25.12;34.28
64158;BME280;50449;51.528;5.076;2022-09-03T10:55:53;100933.72;;;25.22;34.50
64158;BME280;50449;51.528;5.076;2022-09-03T11:01:14;100934.13;;;25.33;34.58
64158;BME280;50449;51.528;5.076;2022-09-03T11:06:24;100934.97;;;25.46;34.14
64158;BME280;50449;51.528;5.076;2022-09-03T11:11:19;100937.19;;;25.53;34.56
64158;BME280;50449;51.528;5.076;2022-09-03T11:13:48;100931.00;;;25.56;34.28
64158;BME280;50449;51.528;5.076;2022-09-03T11:18:53;100925.72;;;25.63;34.62
64158;BME280;50449;51.528;5.076;2022-09-03T11:21:20;100936.09;;;25.66;34.27
64158;BME280;50449;51.528;5.076;2022-09-03T11:23:46;100933.44;;;25.69;34.79
64158;BME280;50449;51.528;5.076;2022-09-03T11:26:17;100925.28;;;25.73;34.30
64158;BME280;50449;51.528;5.076;2022-09-03T11:29:28;100930.94;;;25.77;34.64
64158;BME280;50449;51.528;5.076;2022-09-03T11:34:07;100928.75;;;25.82;34.86
64158;BME280;50449;51.528;5.076;2022-09-03T11:36:37;100926.97;;;25.86;35.24
64158;BME280;50449;51.528;5.076;2022-09-03T11:39:19;100932.63;;;25.90;35.01
64158;BME280;50449;51.528;5.076;2022-09-03T11:42:03;100920.88;;;25.93;35.04
64158;BME280;50449;51.528;5.076;2022-09-03T11:44:36;100923.75;;;25.97;35.00
64158;BME280;50449;51.528;5.076;2022-09-03T11:47:11;100930.25;;;26.01;35.08
64158;BME280;50449;51.528;5.076;2022-09-03T11:49:43;100920.06;;;26.05;34.85
64158;BME280;50449;51.528;5.076;2022-09-03T11:52:08;100927.03;;;26.11;35.02
64158;BME280;50449;51.528;5.076;2022-09-03T11:54:44;100916.53;;;26.17;35.03
64158;BME280;50449;51.528;5.076;2022-09-03T11:57:21;100919.06;;;26.22;34.51
64158;BME280;50449;51.528;5.076;2022-09-03T11:59:47;100920.81;;;26.26;35.02
64158;BME280;50449;51.528;5.076;2022-09-03T12:17:46;100929.03;;;26.60;34.46
64158;BME280;50449;51.528;5.076;2022-09-03T12:20:36;100928.00;;;26.64;34.55
64158;BME280;50449;51.528;5.076;2022-09-03T12:23:01;100934.44;;;26.68;34.52
64158;BME280;50449;51.528;5.076;2022-09-03T12:25:27;100914.81;;;26.73;34.21
64158;BME280;50449;51.528;5.076;2022-09-03T12:27:52;100920.13;;;26.79;34.43
64158;BME280;50449;51.528;5.076;2022-09-03T12:30:18;100920.00;;;26.87;33.75
64158;BME280;50449;51.528;5.076;2022-09-03T12:32:46;100917.44;;;26.94;33.87
64158;BME280;50449;51.528;5.076;2022-09-03T12:35:21;100922.38;;;27.01;33.73
64158;BME280;50449;51.528;5.076;2022-09-03T12:37:46;100907.59;;;27.09;34.08
64158;BME280;50449;51.528;5.076;2022-09-03T12:40:20;100912.53;;;27.16;33.97
64158;BME280;50449;51.528;5.076;2022-09-03T12:42:45;100908.84;;;27.24;33.70
64158;BME280;50449;51.528;5.076;2022-09-03T12:45:11;100915.41;;;27.32;33.09
64158;BME280;50449;51.528;5.076;2022-09-03T12:47:39;100910.03;;;27.39;33.13
64158;BME280;50449;51.528;5.076;2022-09-03T12:50:07;100917.06;;;27.49;33.04
64158;BME280;50449;51.528;5.076;2022-09-03T12:52:38;100911.72;;;27.56;33.03
64158;BME280;50449;51.528;5.076;2022-09-03T12:57:37;100908.97;;;27.72;33.42
64158;BME280;50449;51.528;5.076;2022-09-03T13:00:08;100899.69;;;27.80;33.04
64158;BME280;50449;51.528;5.076;2022-09-03T13:02:43;100899.53;;;27.89;33.20
64158;BME280;50449;51.528;5.076;2022-09-03T13:05:13;100894.97;;;27.96;33.05
64158;BME280;50449;51.528;5.076;2022-09-03T13:07:42;100896.75;;;28.04;32.95
64158;BME280;50449;51.528;5.076;2022-09-03T13:10:15;100897.75;;;28.12;33.02
64158;BME280;50449;51.528;5.076;2022-09-03T13:12:45;100894.00;;;28.20;33.06
64158;BME280;50449;51.528;5.076;2022-09-03T13:15:19;100887.44;;;28.29;32.96
64158;BME280;50449;51.528;5.076;2022-09-03T13:31:10;100889.78;;;28.78;31.46
64158;BME280;50449;51.528;5.076;2022-09-03T13:33:58;100887.63;;;28.87;31.71
64158;BME280;50449;51.528;5.076;2022-09-03T13:36:27;100889.38;;;28.95;31.89
64158;BME280;50449;51.528;5.076;2022-09-03T13:38:56;100893.13;;;29.03;31.72
64158;BME280;50449;51.528;5.076;2022-09-03T13:41:57;100891.31;;;29.10;31.32
64158;BME280;50449;51.528;5.076;2022-09-03T13:44:23;100888.34;;;29.19;31.44
64158;BME280;50449;51.528;5.076;2022-09-03T13:47:01;100891.28;;;29.26;31.25
64158;BME280;50449;51.528;5.076;2022-09-03T13:52:30;100900.72;;;29.41;30.89
64158;BME280;50449;51.528;5.076;2022-09-03T13:55:01;100902.81;;;29.48;30.72
64158;BME280;50449;51.528;5.076;2022-09-03T13:57:36;100891.81;;;29.55;30.73
64158;BME280;50449;51.528;5.076;2022-09-03T14:00:06;100893.94;;;29.62;30.91
64158;BME280;50449;51.528;5.076;2022-09-03T14:02:51;100896.06;;;29.68;31.04
64158;BME280;50449;51.528;5.076;2022-09-03T14:10:55;100886.88;;;29.87;31.08
64158;BME280;50449;51.528;5.076;2022-09-03T14:16:03;100898.63;;;30.00;31.12
64158;BME280;50449;51.528;5.076;2022-09-03T14:21:09;100900.44;;;30.12;31.03
64158;BME280;50449;51.528;5.076;2022-09-03T14:26:13;100903.38;;;30.23;31.12
64158;BME280;50449;51.528;5.076;2022-09-03T14:28:40;100901.13;;;30.28;31.11
64158;BME280;50449;51.528;5.076;2022-09-03T14:36:29;100901.78;;;30.45;30.87
64158;BME280;50449;51.528;5.076;2022-09-03T14:56:49;100890.19;;;30.69;30.60
64158;BME280;50449;51.528;5.076;2022-09-03T14:59:29;100891.41;;;30.72;30.48
64158;BME280;50449;51.528;5.076;2022-09-03T15:07:05;100891.09;;;30.77;30.32
64158;BME280;50449;51.528;5.076;2022-09-03T15:09:46;100892.72;;;30.78;30.35
64158;BME280;50449;51.528;5.076;2022-09-03T15:12:24;100891.50;;;30.79;30.28
64158;BME280;50449;51.528;5.076;2022-09-03T15:25:08;100894.41;;;30.82;30.33
64158;BME280;50449;51.528;5.076;2022-09-03T15:30:13;100898.78;;;30.83;30.44
64158;BME280;50449;51.528;5.076;2022-09-03T15:37:58;100905.56;;;30.82;30.39
64158;BME280;50449;51.528;5.076;2022-09-03T15:40:33;100895.53;;;30.81;30.30
64158;BME280;50449;51.528;5.076;2022-09-03T15:43:03;100895.13;;;30.79;30.47
64158;BME280;50449;51.528;5.076;2022-09-03T15:45:42;100896.72;;;30.80;30.48
64158;BME280;50449;51.528;5.076;2022-09-03T15:50:57;100902.31;;;30.80;30.45
64158;BME280;50449;51.528;5.076;2022-09-03T15:53:32;100895.13;;;30.79;30.36
64158;BME280;50449;51.528;5.076;2022-09-03T15:58:34;100910.22;;;30.78;30.42
64158;BME280;50449;51.528;5.076;2022-09-03T16:01:03;100900.28;;;30.77;30.26
64158;BME280;50449;51.528;5.076;2022-09-03T16:06:01;100904.63;;;30.75;30.14
64158;BME280;50449;51.528;5.076;2022-09-03T16:08:39;100908.56;;;30.74;30.24
64158;BME280;50449;51.528;5.076;2022-09-03T16:16:18;100915.78;;;30.75;30.53
64158;BME280;50449;51.528;5.076;2022-09-03T16:21:48;100906.19;;;30.72;30.32
64158;BME280;50449;51.528;5.076;2022-09-03T16:27:22;100913.31;;;30.70;30.34
64158;BME280;50449;51.528;5.076;2022-09-03T16:30:31;100908.47;;;30.67;30.41
64158;BME280;50449;51.528;5.076;2022-09-03T16:37:55;100912.81;;;30.64;30.58
64158;BME280;50449;51.528;5.076;2022-09-03T16:40:46;100914.00;;;30.63;30.61